createdAt,value
2023-07-03T00:00:26.176Z,52.01
2023-07-03T00:03:11.260Z,52.17
2023-07-03T00:05:56.022Z,52.16
2023-07-03T00:08:41.072Z,52.50
2023-07-03T00:11:25.887Z,52.23
2023-07-03T00:14:10.768Z,52.41
2023-07-03T00:16:55.644Z,52.10
2023-07-03T00:19:40.589Z,52.46
2023-07-03T00:22:25.508Z,52.76
2023-07-03T00:25:10.410Z,52.63
2023-07-03T00:27:55.334Z,53.48
2023-07-03T00:30:40.243Z,53.46
2023-07-03T00:33:25.450Z,53.92
2023-07-03T00:36:10.365Z,53.77
2023-07-03T00:38:55.284Z,53.87
2023-07-03T00:41:40.305Z,54.27
2023-07-03T00:44:25.450Z,53.67
2023-07-03T00:47:10.446Z,54.25
2023-07-03T00:49:55.429Z,54.00
2023-07-03T00:52:40.422Z,54.02
2023-07-03T00:55:25.373Z,54.27
2023-07-03T00:58:10.516Z,54.52
2023-07-03T01:00:55.262Z,54.31
2023-07-03T01:03:40.305Z,54.21
2023-07-03T01:06:25.176Z,54.16
2023-07-03T01:09:10.245Z,54.38
2023-07-03T01:11:55.311Z,54.45
2023-07-03T01:14:40.338Z,54.12
2023-07-03T01:17:25.209Z,54.21
2023-07-03T01:20:10.080Z,54.01
2023-07-03T01:22:54.986Z,53.90
2023-07-03T01:25:39.943Z,53.97
2023-07-03T01:28:24.950Z,54.10
2023-07-03T01:31:09.873Z,54.01
2023-07-03T01:33:54.861Z,54.29
2023-07-03T01:36:39.822Z,53.95
2023-07-03T01:39:24.773Z,54.32
2023-07-03T01:42:09.799Z,54.67
2023-07-03T01:44:54.653Z,54.39
2023-07-03T01:47:39.511Z,54.32
2023-07-03T01:50:24.430Z,54.29
2023-07-03T01:53:09.471Z,54.72
2023-07-03T01:55:54.343Z,54.40
2023-07-03T01:58:39.322Z,54.65
2023-07-03T02:01:24.294Z,54.94
2023-07-03T02:04:09.214Z,55.37
2023-07-03T02:06:54.088Z,54.47
2023-07-03T02:09:38.943Z,54.91
2023-07-03T02:12:24.165Z,55.12
2023-07-03T02:15:09.038Z,54.73
2023-07-03T02:17:54.058Z,54.71
2023-07-03T02:20:38.882Z,55.29
2023-07-03T02:23:23.712Z,55.06
2023-07-03T02:26:08.659Z,55.43
2023-07-03T02:28:53.492Z,55.65
2023-07-03T02:31:38.471Z,55.34
2023-07-03T02:34:23.453Z,54.94
2023-07-03T02:37:08.480Z,55.65
2023-07-03T02:39:53.428Z,55.44
2023-07-03T02:42:44.493Z,55.56
2023-07-03T02:45:29.505Z,55.53
2023-07-03T02:48:14.628Z,55.76
2023-07-03T02:50:59.522Z,55.69
2023-07-03T02:53:44.706Z,55.97
2023-07-03T02:56:29.559Z,55.66
2023-07-03T02:59:14.718Z,55.57
2023-07-03T03:01:59.649Z,55.86
2023-07-03T03:04:44.728Z,55.81
2023-07-03T03:07:29.710Z,55.74
2023-07-03T03:10:14.541Z,55.59
2023-07-03T03:12:59.461Z,55.46
2023-07-03T03:15:44.362Z,55.62
2023-07-03T03:18:29.384Z,55.86
2023-07-03T03:21:14.244Z,56.42
2023-07-03T03:23:59.282Z,55.66
2023-07-03T03:26:44.145Z,55.34
2023-07-03T03:29:29.131Z,55.21
2023-07-03T03:32:14.146Z,55.27
2023-07-03T03:34:59.032Z,55.60
2023-07-03T03:37:44.061Z,55.53
2023-07-03T03:40:28.843Z,55.53
2023-07-03T03:43:13.761Z,55.64
2023-07-03T03:45:58.624Z,55.28
2023-07-03T03:48:43.641Z,55.61
2023-07-03T03:51:28.527Z,55.72
2023-07-03T03:54:13.383Z,55.87
2023-07-03T03:56:58.381Z,55.64
2023-07-03T03:59:43.206Z,55.58
2023-07-03T04:02:28.381Z,56.29
2023-07-03T04:05:13.290Z,55.70
2023-07-03T04:07:58.852Z,56.02
2023-07-03T04:10:43.620Z,56.08
2023-07-03T04:13:28.496Z,56.04
2023-07-03T04:16:13.461Z,55.57
2023-07-03T04:18:58.263Z,55.83
2023-07-03T04:21:43.376Z,55.84
2023-07-03T04:24:28.259Z,56.14
2023-07-03T04:27:13.316Z,56.13
2023-07-03T04:29:58.227Z,56.16
2023-07-03T04:32:43.437Z,55.69
2023-07-03T04:35:28.370Z,55.76
2023-07-03T04:38:13.308Z,56.09
2023-07-03T04:40:58.274Z,56.50
2023-07-03T04:43:43.136Z,56.45
2023-07-03T04:46:28.246Z,56.18
2023-07-03T04:49:13.233Z,56.11
2023-07-03T04:51:58.184Z,55.85
2023-07-03T04:54:42.861Z,56.13
2023-07-03T04:57:27.862Z,55.75
2023-07-03T05:00:12.613Z,55.40
2023-07-03T05:02:57.738Z,55.43
2023-07-03T05:05:42.677Z,55.34
2023-07-03T05:08:27.624Z,55.34
2023-07-03T05:11:12.724Z,55.43
2023-07-03T05:13:57.767Z,55.68
2023-07-03T05:16:42.772Z,55.33
2023-07-03T05:19:27.605Z,55.74
2023-07-03T05:22:12.487Z,55.57
2023-07-03T05:24:57.532Z,55.73
2023-07-03T05:27:42.364Z,56.19
2023-07-03T05:30:27.495Z,56.31
2023-07-03T05:33:12.335Z,55.92
2023-07-03T05:35:57.503Z,55.71
2023-07-03T05:38:42.187Z,56.14
2023-07-03T05:41:27.173Z,56.37
2023-07-03T05:44:12.093Z,56.13
2023-07-03T05:46:57.139Z,56.10
2023-07-03T05:49:41.977Z,56.16
2023-07-03T05:52:26.876Z,55.89
2023-07-03T05:55:11.873Z,55.74
2023-07-03T05:57:56.727Z,55.68
2023-07-03T06:00:41.854Z,56.09
2023-07-03T06:03:26.749Z,56.34
2023-07-03T06:06:11.680Z,55.61
2023-07-03T06:08:56.583Z,55.25
2023-07-03T06:11:41.438Z,55.03
2023-07-03T06:14:26.341Z,55.11
2023-07-03T06:17:11.212Z,55.50
2023-07-03T06:19:56.285Z,56.37
2023-07-03T06:22:41.264Z,56.00
2023-07-03T06:25:26.233Z,55.07
2023-07-03T06:28:11.169Z,54.86
2023-07-03T06:30:56.137Z,54.75
2023-07-03T06:33:40.975Z,54.27
2023-07-03T06:36:25.937Z,54.06
2023-07-03T06:39:10.793Z,54.19
2023-07-03T06:41:55.695Z,54.21
2023-07-03T06:44:40.744Z,53.62
2023-07-03T06:47:25.639Z,53.94
2023-07-03T06:50:10.435Z,53.50
2023-07-03T06:52:55.481Z,52.79
2023-07-03T06:55:40.413Z,52.45
2023-07-03T06:58:25.308Z,52.58
2023-07-03T07:01:10.241Z,51.99
2023-07-03T07:03:55.197Z,51.90
2023-07-03T07:06:40.067Z,52.69
2023-07-03T07:09:25.068Z,52.82
2023-07-03T07:12:09.978Z,53.01
2023-07-03T07:14:54.844Z,53.42
2023-07-03T07:17:50.947Z,52.51
2023-07-03T07:20:37.075Z,51.90
2023-07-03T07:23:21.939Z,51.58
2023-07-03T07:26:06.946Z,51.63
2023-07-03T07:28:51.857Z,51.69
2023-07-03T07:31:38.321Z,51.92
2023-07-03T07:34:24.864Z,51.30
2023-07-03T07:37:09.626Z,51.59
2023-07-03T07:39:54.564Z,50.39
2023-07-03T07:42:39.454Z,50.19
2023-07-03T07:45:24.571Z,50.76
2023-07-03T07:48:09.435Z,50.12
2023-07-03T07:50:54.392Z,49.09
2023-07-03T07:53:39.459Z,48.90
2023-07-03T07:56:24.332Z,49.50
2023-07-03T07:59:09.480Z,48.64
2023-07-03T08:01:54.436Z,48.88
2023-07-03T08:04:39.442Z,47.56
2023-07-03T08:07:24.661Z,47.97
2023-07-03T08:10:09.668Z,48.21
2023-07-03T08:12:54.668Z,47.87
2023-07-03T08:15:39.678Z,47.86
2023-07-03T08:18:24.778Z,47.35
2023-07-03T08:21:09.750Z,47.37
2023-07-03T08:23:54.630Z,46.61
2023-07-03T08:26:39.544Z,46.98
2023-07-03T08:29:24.549Z,46.22
2023-07-03T08:32:09.530Z,45.46
2023-07-03T08:37:42.362Z,45.36
2023-07-03T08:40:27.310Z,45.62
2023-07-03T08:43:12.241Z,46.01
2023-07-03T08:45:57.168Z,45.65
2023-07-03T08:48:42.068Z,45.05
2023-07-03T08:51:27.015Z,45.49
2023-07-03T08:54:11.890Z,44.17
2023-07-03T08:56:56.667Z,43.52
2023-07-03T08:59:41.447Z,43.49
2023-07-03T09:02:26.612Z,43.53
2023-07-03T09:05:11.467Z,41.92
2023-07-03T09:07:56.368Z,42.51
2023-07-03T09:10:41.155Z,42.64
2023-07-03T09:13:26.065Z,42.04
2023-07-03T09:16:10.869Z,41.27
2023-07-03T09:18:56.264Z,42.13
2023-07-03T09:21:41.524Z,41.24
2023-07-03T09:24:26.413Z,41.67
2023-07-03T09:27:11.234Z,41.17
2023-07-03T09:29:56.010Z,40.76
2023-07-03T09:32:40.942Z,41.28
2023-07-03T09:35:26.786Z,41.37
2023-07-03T09:38:11.860Z,40.69
2023-07-03T09:40:59.565Z,40.03
2023-07-03T09:43:44.848Z,40.06
2023-07-03T09:46:29.841Z,40.38
2023-07-03T09:49:14.764Z,40.30
2023-07-03T09:51:59.734Z,39.80
2023-07-03T09:54:44.694Z,39.08
2023-07-03T09:57:29.544Z,37.94
2023-07-03T10:00:14.541Z,38.56
2023-07-03T10:08:35.329Z,37.56
2023-07-03T10:11:20.454Z,37.53
2023-07-03T10:14:05.437Z,36.07
2023-07-03T10:16:50.307Z,37.08
2023-07-03T10:19:35.322Z,36.80
2023-07-03T10:22:20.280Z,37.23
2023-07-03T10:25:05.172Z,36.02
2023-07-03T10:27:50.103Z,35.50
2023-07-03T10:30:35.027Z,35.62
2023-07-03T10:33:20.017Z,34.15
2023-07-03T10:36:05.822Z,35.42
2023-07-03T10:38:51.064Z,32.73
2023-07-03T10:41:36.048Z,34.45
2023-07-03T10:44:21.054Z,34.36
2023-07-03T10:47:06.105Z,35.21
2023-07-03T10:49:51.048Z,33.65
2023-07-03T10:52:36.094Z,34.45
2023-07-03T10:55:20.923Z,33.57
2023-07-03T10:58:05.861Z,32.88
2023-07-03T11:00:50.754Z,33.13
2023-07-03T11:03:35.721Z,33.80
2023-07-03T11:06:20.553Z,34.48
2023-07-03T11:09:05.513Z,34.64
2023-07-03T11:11:50.493Z,33.98
2023-07-03T11:14:35.497Z,33.84
2023-07-03T11:17:20.455Z,34.40
2023-07-03T11:20:05.448Z,34.06
2023-07-03T11:22:50.373Z,33.04
2023-07-03T11:25:35.162Z,34.81
2023-07-03T11:28:20.583Z,34.91
2023-07-03T11:31:05.643Z,34.49
2023-07-03T11:36:50.111Z,34.55
2023-07-03T11:45:15.053Z,35.36
2023-07-03T11:47:59.899Z,35.26
2023-07-03T11:50:44.855Z,34.66
2023-07-03T11:53:29.890Z,34.52
2023-07-03T11:56:14.764Z,34.31
2023-07-03T11:59:00.341Z,33.74
2023-07-03T12:01:46.670Z,34.00
2023-07-03T12:04:31.626Z,33.53
2023-07-03T12:07:16.557Z,33.04
2023-07-03T12:10:01.509Z,34.02
2023-07-03T12:12:46.404Z,32.41
2023-07-03T12:15:31.423Z,32.80
2023-07-03T12:18:16.468Z,32.76
2023-07-03T12:21:01.461Z,33.03
2023-07-03T12:23:49.045Z,31.61
2023-07-03T12:26:34.320Z,31.57
2023-07-03T12:29:21.193Z,31.15
2023-07-03T12:32:07.354Z,31.04
2023-07-03T12:34:52.257Z,30.92
2023-07-03T12:37:37.169Z,30.22
2023-07-03T12:40:22.188Z,31.49
2023-07-03T12:43:07.158Z,31.02
2023-07-03T12:45:52.452Z,31.76
2023-07-03T12:48:37.710Z,31.48
2023-07-03T12:51:22.556Z,31.53
2023-07-03T12:54:07.414Z,31.18
2023-07-03T12:56:52.372Z,30.44
2023-07-03T12:59:37.253Z,30.89
2023-07-03T13:02:22.581Z,30.38
2023-07-03T13:05:07.841Z,30.98
2023-07-03T13:07:52.641Z,30.99
2023-07-03T13:10:37.631Z,31.01
2023-07-03T13:13:22.530Z,30.44
2023-07-03T13:16:07.393Z,30.12
2023-07-03T13:18:52.179Z,30.49
2023-07-03T13:21:37.084Z,30.34
2023-07-03T13:24:22.103Z,30.86
2023-07-03T13:27:07.045Z,30.06
2023-07-03T13:29:52.095Z,30.49
2023-07-03T13:32:37.076Z,31.13
2023-07-03T13:35:22.041Z,30.42
2023-07-03T13:38:06.922Z,30.98
2023-07-03T13:40:51.891Z,30.36
2023-07-03T13:43:36.723Z,30.37
2023-07-03T13:46:21.665Z,30.55
2023-07-03T13:49:06.499Z,30.18
2023-07-03T13:51:51.386Z,30.48
2023-07-03T13:54:36.346Z,30.42
2023-07-03T13:57:21.203Z,30.33
2023-07-03T14:00:06.282Z,29.61
2023-07-03T14:02:51.246Z,30.21
2023-07-03T14:05:36.082Z,30.18
2023-07-03T14:08:20.841Z,30.36
2023-07-03T14:11:05.738Z,30.64
2023-07-03T14:13:50.711Z,30.45
2023-07-03T14:16:35.629Z,30.39
2023-07-03T14:19:20.617Z,30.14
2023-07-03T14:22:05.519Z,29.89
2023-07-03T14:24:50.440Z,30.08
2023-07-03T14:27:35.380Z,29.87
2023-07-03T14:30:20.366Z,29.54
2023-07-03T14:33:05.378Z,30.08
2023-07-03T14:35:50.773Z,30.18
2023-07-03T14:38:36.067Z,28.96
2023-07-03T14:41:20.867Z,29.38
2023-07-03T14:44:06.022Z,29.20
2023-07-03T14:46:51.034Z,28.92
2023-07-03T14:49:35.978Z,28.65
2023-07-03T14:52:20.930Z,27.94
2023-07-03T14:55:05.937Z,27.47
2023-07-03T14:57:50.879Z,28.24
2023-07-03T15:00:35.661Z,28.31
2023-07-03T15:03:20.982Z,27.79
2023-07-03T15:06:06.066Z,27.54
2023-07-03T15:08:51.220Z,27.71
2023-07-03T15:11:36.043Z,28.34
2023-07-03T15:14:21.839Z,27.74
2023-07-03T15:17:06.727Z,27.61
2023-07-03T15:19:52.029Z,27.67
2023-07-03T15:22:37.208Z,27.78
2023-07-03T15:25:22.129Z,27.73
2023-07-03T15:28:07.130Z,27.12
2023-07-03T15:30:52.125Z,27.20
2023-07-03T15:33:36.798Z,27.45
2023-07-03T15:36:21.734Z,27.43
2023-07-03T15:39:06.556Z,27.19
2023-07-03T15:41:51.457Z,27.86
2023-07-03T15:44:36.263Z,28.11
2023-07-03T15:47:21.564Z,28.45
2023-07-03T15:50:06.688Z,28.85
2023-07-03T15:52:51.596Z,28.66
2023-07-03T15:55:36.573Z,29.50
2023-07-03T15:58:21.533Z,29.40
2023-07-03T16:01:07.979Z,29.11
2023-07-03T16:03:53.868Z,29.17
2023-07-03T16:06:38.830Z,28.63
2023-07-03T16:09:23.683Z,28.78
2023-07-03T16:12:08.792Z,29.48
2023-07-03T16:14:53.618Z,29.39
2023-07-03T16:17:38.411Z,29.74
2023-07-03T16:20:23.386Z,30.28
2023-07-03T16:23:08.260Z,31.35
2023-07-03T16:25:53.284Z,30.98
2023-07-03T16:28:38.268Z,30.77
2023-07-03T16:31:23.157Z,29.90
2023-07-03T16:34:08.208Z,30.73
2023-07-03T16:36:53.188Z,30.71
2023-07-03T16:39:37.852Z,31.52
2023-07-03T16:42:22.887Z,31.14
2023-07-03T16:45:07.720Z,31.79
2023-07-03T16:47:52.788Z,31.60
2023-07-03T16:50:37.787Z,31.75
2023-07-03T16:53:22.715Z,32.17
2023-07-03T16:56:07.599Z,32.14
2023-07-03T16:58:52.417Z,32.85
2023-07-03T17:01:37.516Z,32.43
2023-07-03T17:04:22.302Z,32.63
2023-07-03T17:07:07.288Z,32.83
2023-07-03T17:09:52.271Z,33.74
2023-07-03T17:12:37.255Z,34.98
2023-07-03T17:15:22.181Z,35.17
2023-07-03T17:18:07.118Z,35.58
2023-07-03T17:20:52.061Z,35.50
2023-07-03T17:23:36.964Z,35.37
2023-07-03T17:26:22.036Z,36.14
2023-07-03T17:29:06.923Z,36.37
2023-07-03T17:31:51.968Z,35.15
2023-07-03T17:34:36.801Z,35.89
2023-07-03T17:37:21.755Z,36.47
2023-07-03T17:40:07.005Z,36.78
2023-07-03T17:42:51.902Z,37.04
2023-07-03T17:45:36.880Z,37.02
2023-07-03T17:48:21.592Z,37.88
2023-07-03T17:51:06.686Z,38.23
2023-07-03T17:53:51.390Z,38.24
2023-07-03T17:56:36.506Z,38.23
2023-07-03T17:59:21.698Z,38.64
2023-07-03T18:02:06.437Z,39.08
2023-07-03T18:04:51.348Z,39.22
2023-07-03T18:07:36.261Z,40.02
2023-07-03T18:10:20.954Z,40.28
2023-07-03T18:13:05.704Z,40.12
2023-07-03T18:15:50.805Z,39.55
2023-07-03T18:18:35.517Z,39.65
2023-07-03T18:21:20.403Z,39.77
2023-07-03T18:24:05.495Z,39.56
2023-07-03T18:26:50.405Z,39.50
2023-07-03T18:29:35.426Z,40.10
2023-07-03T18:32:20.328Z,40.04
2023-07-03T18:35:05.393Z,40.44
2023-07-03T18:37:50.226Z,40.32
2023-07-03T18:40:35.187Z,40.69
2023-07-03T18:43:20.115Z,40.84
2023-07-03T18:46:05.120Z,40.91
2023-07-03T18:48:50.043Z,40.86
2023-07-03T18:51:36.354Z,41.41
2023-07-03T18:54:22.394Z,41.52
2023-07-03T18:57:07.378Z,41.84
2023-07-03T18:59:52.431Z,41.76
2023-07-03T19:02:37.274Z,41.85
2023-07-03T19:05:22.217Z,41.87
2023-07-03T19:08:07.292Z,42.34
2023-07-03T19:10:52.139Z,42.44
2023-07-03T19:13:37.169Z,42.86
2023-07-03T19:16:21.936Z,42.72
2023-07-03T19:19:06.742Z,42.74
2023-07-03T19:21:51.694Z,42.73
2023-07-03T19:24:36.623Z,42.37
2023-07-03T19:27:21.648Z,42.11
2023-07-03T19:30:06.560Z,42.22
2023-07-03T19:32:51.547Z,42.35
2023-07-03T19:35:36.295Z,42.34
2023-07-03T19:38:21.457Z,42.17
2023-07-03T19:41:06.539Z,42.55
2023-07-03T19:43:51.495Z,42.48
2023-07-03T19:46:36.231Z,42.71
2023-07-03T19:49:21.202Z,42.96
2023-07-03T19:52:06.229Z,43.19
2023-07-03T19:54:51.118Z,42.90
2023-07-03T19:57:36.134Z,43.18
2023-07-03T20:00:21.285Z,43.00
2023-07-03T20:03:06.387Z,43.02
2023-07-03T20:05:51.292Z,43.13
2023-07-03T20:08:36.583Z,43.21
2023-07-03T20:11:21.580Z,43.56
2023-07-03T20:14:06.613Z,43.78
2023-07-03T20:16:51.880Z,43.78
2023-07-03T20:19:36.771Z,43.62
2023-07-03T20:22:21.844Z,43.82
2023-07-03T20:25:06.763Z,43.95
2023-07-03T20:27:51.866Z,43.66
2023-07-03T20:30:36.765Z,44.01
2023-07-03T20:33:21.634Z,44.23
2023-07-03T20:36:06.623Z,44.32
2023-07-03T20:38:51.369Z,44.82
2023-07-03T20:41:36.468Z,44.93
2023-07-03T20:44:21.312Z,45.52
2023-07-03T20:47:06.337Z,45.35
2023-07-03T20:49:51.271Z,45.44
2023-07-03T20:52:36.185Z,45.30
2023-07-03T20:55:21.022Z,45.37
2023-07-03T20:58:05.957Z,45.23
2023-07-03T21:00:51.038Z,45.41
2023-07-03T21:03:36.157Z,45.24
2023-07-03T21:06:21.164Z,45.46
2023-07-03T21:09:05.875Z,45.29
2023-07-03T21:11:50.753Z,45.41
2023-07-03T21:14:35.690Z,45.55
2023-07-03T21:17:20.705Z,45.74
2023-07-03T21:20:05.475Z,45.82
2023-07-03T21:22:50.430Z,45.87
2023-07-03T21:25:35.874Z,45.52
2023-07-03T21:28:21.375Z,45.68
2023-07-03T21:31:06.166Z,45.62
2023-07-03T21:33:51.021Z,46.03
2023-07-03T21:36:35.902Z,46.24
2023-07-03T21:39:20.715Z,46.03
2023-07-03T21:42:05.859Z,46.00
2023-07-03T21:44:50.549Z,46.43
2023-07-03T21:47:35.729Z,46.42
2023-07-03T21:50:22.597Z,46.37
2023-07-03T21:53:07.679Z,46.72
2023-07-03T21:55:52.707Z,46.71
2023-07-03T21:58:37.998Z,47.08
2023-07-03T22:01:24.793Z,47.27
2023-07-03T22:04:11.109Z,47.43
2023-07-03T22:06:55.956Z,47.62
2023-07-03T22:09:40.935Z,47.97
2023-07-03T22:12:25.723Z,47.83
2023-07-03T22:15:10.635Z,47.92
2023-07-03T22:17:55.619Z,48.07
2023-07-03T22:20:40.417Z,47.98
2023-07-03T22:23:31.975Z,48.21
2023-07-03T22:26:17.338Z,48.25
2023-07-03T22:29:02.396Z,48.13
2023-07-03T22:31:47.351Z,48.00
2023-07-03T22:34:32.280Z,48.16
2023-07-03T22:37:17.327Z,47.85
2023-07-03T22:40:02.257Z,47.68
2023-07-03T22:42:47.193Z,48.17
2023-07-03T22:45:32.214Z,48.33
2023-07-03T22:48:17.364Z,48.38
2023-07-03T22:51:02.869Z,48.25
2023-07-03T22:53:47.489Z,48.50
2023-07-03T22:56:32.366Z,48.74
2023-07-03T22:59:17.217Z,48.64
2023-07-03T23:02:02.237Z,48.63
2023-07-03T23:04:47.054Z,48.49
2023-07-03T23:07:31.931Z,48.24
2023-07-03T23:10:16.867Z,48.05
2023-07-03T23:13:01.736Z,48.19
2023-07-03T23:15:46.676Z,48.46
2023-07-03T23:18:31.661Z,48.35
2023-07-03T23:21:16.469Z,48.15
2023-07-03T23:24:01.351Z,48.54
2023-07-03T23:26:46.365Z,48.47
2023-07-03T23:29:31.155Z,48.44
2023-07-03T23:32:16.045Z,49.07
2023-07-03T23:35:01.028Z,49.25
2023-07-03T23:37:45.900Z,48.97
2023-07-03T23:40:30.925Z,49.12
2023-07-03T23:43:15.917Z,49.31
2023-07-03T23:46:01.138Z,49.28
2023-07-03T23:48:45.968Z,49.41
2023-07-03T23:51:30.864Z,49.22
2023-07-03T23:54:15.858Z,49.30
2023-07-03T23:57:00.715Z,49.41
2023-07-03T23:59:45.671Z,49.38
